Kendall J. Hebert — WDG7507 — position and weather

sailwx.info

Track history (hours):
 
Tides and Currents Weather Stations Pressure Air Temp Water Temp Dewpoint Dewpoint Depression Visibility Wind Speed Wind Dir Waves Ship Positions

Kendall J. Hebert

Owner: Gulf Coast Tugs, Inc., Larose, LA. More information available from US FCC via Universal Licensing System and Coast Guard Vessel Documentation Center.

Last reported at 2017-Nov-18 00:18 UTC. Time now 2017-Nov-19 12:18 UTC.
Position N 41°14' W 072°40'.

Length 24 m.

Type: Tug. MMSI: 367567990.

Date/timePositionNaut miles runAvg speedWind from/ knotsBaromVisibWave heightAir tempDewpointWater temp
2017-Nov-18 00:18N 41°14' W 072°40'3 7.3
2017-Nov-17 23:55N 41°15' W 072°36'2 4.2
2017-Nov-17 23:29N 41°16' W 072°34'0 0.0
2017-Nov-17 23:00N 41°16' W 072°34'0 0.0
2017-Nov-17 22:30N 41°16' W 072°34'0 0.0
2017-Nov-17 22:00N 41°16' W 072°34'0 0.0
2017-Nov-17 21:30N 41°16' W 072°34'0 0.0
2017-Nov-17 21:00N 41°16' W 072°34'0 0.0
2017-Nov-17 20:29N 41°16' W 072°34'0 0.0
2017-Nov-17 20:00N 41°16' W 072°34'0 0.0
2017-Nov-17 19:31N 41°16' W 072°34'0 0.3
2017-Nov-17 19:00N 41°16' W 072°34'1 1.0
2017-Nov-17 18:31N 41°15' W 072°34'6 0.3
2017-Nov-16 23:30N 41°13' W 072°42'3 6.1
2017-Nov-16 23:00N 41°14' W 072°38'3 6.0
2017-Nov-16 22:30N 41°15' W 072°34'1 1.0
2017-Nov-16 22:00N 41°16' W 072°34'0 0.0
2017-Nov-16 21:29N 41°16' W 072°34'0 0.0
2017-Nov-16 21:00N 41°16' W 072°34'0 0.0
2017-Nov-16 20:30N 41°16' W 072°34'0 0.0
2017-Nov-16 20:00N 41°16' W 072°34'0 0.0
2017-Nov-16 19:30N 41°16' W 072°34'0 0.0
2017-Nov-16 19:00N 41°16' W 072°34'0 0.0
2017-Nov-16 18:30N 41°16' W 072°34'0 0.0
2017-Nov-16 18:00N 41°16' W 072°34'0 0.0
2017-Nov-16 17:30N 41°16' W 072°34'0 0.2
2017-Nov-16 17:00N 41°16' W 072°34'0 0.4
2017-Nov-16 16:30N 41°15' W 072°34'5 0.3
2017-Nov-15 21:16N 41°14' W 072°40'2 7.6
2017-Nov-15 21:00N 41°14' W 072°38'3 6.4
2017-Nov-15 20:30N 41°16' W 072°34'0 0.0
2017-Nov-15 20:00N 41°16' W 072°34'0 0.0
2017-Nov-15 19:30N 41°16' W 072°34'0 0.1
2017-Nov-15 19:00N 41°16' W 072°34'0 0.1
2017-Nov-15 18:30N 41°16' W 072°34'0 0.0
2017-Nov-15 18:00N 41°16' W 072°34'0 0.0
2017-Nov-15 17:30N 41°16' W 072°34'0 0.0
2017-Nov-15 17:00N 41°16' W 072°34'0 0.0
2017-Nov-15 16:30N 41°16' W 072°34'0 0.0
2017-Nov-15 16:00N 41°16' W 072°34'0 0.0
2017-Nov-15 15:30N 41°16' W 072°34'0 0.0
2017-Nov-15 15:00N 41°16' W 072°34'1 1.5
2017-Nov-15 14:30N 41°15' W 072°33'0 0.1
2017-Nov-15 14:00N 41°15' W 072°34'5 0.2
2017-Nov-14 16:50N 41°14' W 072°40'2 6.2
2017-Nov-14 16:30N 41°15' W 072°37'3 5.4
2017-Nov-14 16:00N 41°16' W 072°34'0 0.1
2017-Nov-14 15:30N 41°16' W 072°34'0 0.0
2017-Nov-14 15:00N 41°16' W 072°34'0 0.0
2017-Nov-14 14:30N 41°16' W 072°34'0 0.1
2017-Nov-14 14:00N 41°16' W 072°34'0 0.0
2017-Nov-14 13:29N 41°16' W 072°34'0 0.0
2017-Nov-14 13:00N 41°16' W 072°34'0 0.0
2017-Nov-14 12:30N 41°16' W 072°34'0 0.0
2017-Nov-14 12:00N 41°16' W 072°34'0 0.1
2017-Nov-14 11:30N 41°16' W 072°34'1 1.4
2017-Nov-14 11:00N 41°15' W 072°35'1 2.1
2017-Nov-14 10:30N 41°15' W 072°36'0 0.7
2017-Nov-14 09:58N 41°15' W 072°36'0 0.4
2017-Nov-14 09:30N 41°15' W 072°37'0 1.0
2017-Nov-14 09:00N 41°14' W 072°37'0 0.8
2017-Nov-14 08:30N 41°14' W 072°37'1 1.1
2017-Nov-14 08:00N 41°15' W 072°36'0 0.9
2017-Nov-14 07:30N 41°15' W 072°35'0 0.7
2017-Nov-14 07:00N 41°15' W 072°35'0 0.7
2017-Nov-14 06:30N 41°15' W 072°35'0 0.5
2017-Nov-14 06:00N 41°15' W 072°34'1 1.1
2017-Nov-14 05:30N 41°15' W 072°35'1 2.6
2017-Nov-14 05:00N 41°14' W 072°36'2 3.4
2017-Nov-14 04:26N 41°14' W 072°38'2 0.1
2017-Nov-12 21:42N 41°14' W 072°41'3 8.0
2017-Nov-12 21:22N 41°14' W 072°37'3 7.3
2017-Nov-12 21:00N 41°16' W 072°34'0 0.3
2017-Nov-12 20:30N 41°16' W 072°34'0 0.0
2017-Nov-12 20:01N 41°16' W 072°34'0 0.0
2017-Nov-12 19:30N 41°16' W 072°34'0 0.0
2017-Nov-12 19:00N 41°16' W 072°34'0 0.0
2017-Nov-12 18:30N 41°16' W 072°34'0 0.0
2017-Nov-12 18:00N 41°16' W 072°34'0 0.0
2017-Nov-12 17:30N 41°16' W 072°34'0 0.0
2017-Nov-12 17:00N 41°16' W 072°34'0 0.0
2017-Nov-12 16:30N 41°16' W 072°34'0 0.0
2017-Nov-12 16:00N 41°16' W 072°34'0 0.1
2017-Nov-12 15:29N 41°16' W 072°34'5 0.2
2017-Nov-11 17:45N 41°14' W 072°40'2 7.4
2017-Nov-11 17:29N 41°14' W 072°38'3 6.0
2017-Nov-11 17:00N 41°16' W 072°34'0 0.2
2017-Nov-11 16:30N 41°16' W 072°34'0 0.0
2017-Nov-11 16:00N 41°16' W 072°34'0 0.0
2017-Nov-11 15:30N 41°16' W 072°34'0 0.0
2017-Nov-11 15:00N 41°16' W 072°34'0 0.0
2017-Nov-11 14:29N 41°16' W 072°34'0 0.0
2017-Nov-11 14:00N 41°16' W 072°34'0 0.0
2017-Nov-11 13:30N 41°16' W 072°34'0 0.0
2017-Nov-11 13:00N 41°16' W 072°34'0 0.0
2017-Nov-11 12:30N 41°16' W 072°34'0 0.0
2017-Nov-11 11:57N 41°16' W 072°34'0 0.0
2017-Nov-11 11:30N 41°16' W 072°34'0 0.0
2017-Nov-11 10:18N 41°16' W 072°34'0 0.0
2017-Nov-11 09:59N 41°16' W 072°34'0 0.0
2017-Nov-11 09:30N 41°16' W 072°34'0 0.0
2017-Nov-11 09:00N 41°16' W 072°34'0 0.0
2017-Nov-11 08:30N 41°16' W 072°34'0 0.0
2017-Nov-11 08:00N 41°16' W 072°34'0 0.0
2017-Nov-11 07:30N 41°16' W 072°34'0 0.0
2017-Nov-11 07:00N 41°16' W 072°34'0 0.0
2017-Nov-11 06:30N 41°16' W 072°34'0 0.2
2017-Nov-11 06:00N 41°16' W 072°34'0 0.9
2017-Nov-11 05:30N 41°15' W 072°34'1 1.7
2017-Nov-11 05:00N 41°14' W 072°35'1 1.5
2017-Nov-11 04:20N 41°15' W 072°36'1 2.3
2017-Nov-11 04:00N 41°14' W 072°36'2 3.2
2017-Nov-11 03:27N 41°13' W 072°34'1 2.0
2017-Nov-11 03:00N 41°13' W 072°33'2 3.9
2017-Nov-11 02:30N 41°15' W 072°34'1 1.7
2017-Nov-11 02:01N 41°14' W 072°35'1 1.7
2017-Nov-11 01:31N 41°14' W 072°36'1 2.4
2017-Nov-11 01:00N 41°15' W 072°35'1 2.5
2017-Nov-11 00:30N 41°14' W 072°34'1 2.8
2017-Nov-11 00:00N 41°15' W 072°35'1 2.0
2017-Nov-10 23:30N 41°15' W 072°36'1 2.5
2017-Nov-10 23:00N 41°14' W 072°34'1 2.1
2017-Nov-10 22:30N 41°14' W 072°33'6 1.1
2017-Nov-10 17:28N 41°14' W 072°41'2 4.1
2017-Nov-10 17:01N 41°14' W 072°38'2 3.6
2017-Nov-10 16:31N 41°15' W 072°36'2 3.2
2017-Nov-10 16:00N 41°15' W 072°34'1 1.9
2017-Nov-10 15:30N 41°15' W 072°35'2 3.9
2017-Nov-10 15:00N 41°14' W 072°37'1 1.2
2017-Nov-10 14:29N 41°14' W 072°38'1 2.8
2017-Nov-10 14:00N 41°15' W 072°36'1 2.7
2017-Nov-10 13:30N 41°15' W 072°34'2 3.6
2017-Nov-10 13:00N 41°14' W 072°36'2 4.1
2017-Nov-10 12:30N 41°14' W 072°39'1 2.4
2017-Nov-10 12:01N 41°14' W 072°38'1 2.4
2017-Nov-10 11:31N 41°15' W 072°36'1 2.1
2017-Nov-10 11:00N 41°15' W 072°35'3 4.6
2017-Nov-10 10:24N 41°14' W 072°38'1 3.2
2017-Nov-10 10:00N 41°14' W 072°40'1 3.0
2017-Nov-10 09:30N 41°14' W 072°38'1 3.0
2017-Nov-10 09:00N 41°15' W 072°36'1 2.9
2017-Nov-10 08:31N 41°15' W 072°34'1 1.2
2017-Nov-10 08:00N 41°16' W 072°34'0 0.0
2017-Nov-10 07:31N 41°16' W 072°34'0 0.0
2017-Nov-10 07:00N 41°16' W 072°34'0 0.0
2017-Nov-10 06:31N 41°16' W 072°34'0 0.0
2017-Nov-10 06:00N 41°16' W 072°34'0 0.0
2017-Nov-10 05:30N 41°16' W 072°34'0 0.0
2017-Nov-10 05:01N 41°16' W 072°34'0 0.0
2017-Nov-10 04:30N 41°16' W 072°34'0 0.0
2017-Nov-10 04:01N 41°16' W 072°34'0 0.0
2017-Nov-10 03:30N 41°16' W 072°34'0 0.0
2017-Nov-10 03:01N 41°16' W 072°34'0 0.0
2017-Nov-10 02:30N 41°16' W 072°34'0 0.0
2017-Nov-10 02:01N 41°16' W 072°34'0 0.0
2017-Nov-10 01:31N 41°16' W 072°34'0 0.0
2017-Nov-10 01:00N 41°16' W 072°34'0 0.0
2017-Nov-10 00:31N 41°16' W 072°34'0 0.0
2017-Nov-10 00:01N 41°16' W 072°34'0 0.0
2017-Nov-09 23:30N 41°16' W 072°34'0 0.0
2017-Nov-09 23:01N 41°16' W 072°34'0 0.3
2017-Nov-09 22:28N 41°16' W 072°34'0 0.4
2017-Nov-09 22:01N 41°15' W 072°34'0 0.8
2017-Nov-09 21:31N 41°15' W 072°34'0 0.9
2017-Nov-09 21:00N 41°15' W 072°34'0 0.3
2017-Nov-09 20:30N 41°15' W 072°35'0 0.1
2017-Nov-09 20:01N 41°15' W 072°35'0 0.2
2017-Nov-09 19:31N 41°15' W 072°35'0 0.3
2017-Nov-09 19:01N 41°15' W 072°35'0 0.6
2017-Nov-09 18:30N 41°15' W 072°35'0 0.2
2017-Nov-09 18:01N 41°15' W 072°35'0 0.0
2017-Nov-09 17:31N 41°15' W 072°35'1 1.5
2017-Nov-09 17:01N 41°15' W 072°36'1 2.0
2017-Nov-09 16:31N 41°15' W 072°37'1 0.1
2017-Nov-08 22:46N 41°14' W 072°39'1 5.2
2017-Nov-08 22:31N 41°15' W 072°37'3 5.0
2017-Nov-08 22:01N 41°16' W 072°34'0 0.3
2017-Nov-08 21:31N 41°16' W 072°34'0 0.0
2017-Nov-08 20:46N 41°16' W 072°34'0 0.0
2017-Nov-08 20:31N 41°16' W 072°34'0 0.0
2017-Nov-08 20:00N 41°16' W 072°34'0 0.0
2017-Nov-08 19:30N 41°16' W 072°34'0 0.0
2017-Nov-08 19:00N 41°16' W 072°34'0 0.0
2017-Nov-08 18:29N 41°16' W 072°34'0 0.0
2017-Nov-08 18:00N 41°16' W 072°34'0 0.0
2017-Nov-08 17:30N 41°16' W 072°34'0 0.0
2017-Nov-08 17:00N 41°16' W 072°34'0 0.0
2017-Nov-08 16:30N 41°16' W 072°34'0 0.0
2017-Nov-08 16:01N 41°16' W 072°34'0 0.0
2017-Nov-08 15:30N 41°16' W 072°34'0 0.0
2017-Nov-08 15:00N 41°16' W 072°34'0 0.0
2017-Nov-08 14:30N 41°16' W 072°34'0 0.0
2017-Nov-08 14:01N 41°16' W 072°34'0 0.0
2017-Nov-08 13:31N 41°16' W 072°34'0 0.0
2017-Nov-08 13:00N 41°16' W 072°34'0 0.0
2017-Nov-08 12:31N 41°16' W 072°34'0 0.9
2017-Nov-08 12:01N 41°15' W 072°34'0 0.7
2017-Nov-08 11:31N 41°15' W 072°34'0 0.8
2017-Nov-08 11:00N 41°15' W 072°35'0 0.2
2017-Nov-08 10:31N 41°15' W 072°35'1 1.4
2017-Nov-08 10:01N 41°15' W 072°34'0 1.0
2017-Nov-08 09:31N 41°14' W 072°34'1 1.5
2017-Nov-08 09:01N 41°15' W 072°34'0 0.3
2017-Nov-08 08:30N 41°15' W 072°34'0 0.5
2017-Nov-08 08:00N 41°15' W 072°34'0 0.2
2017-Nov-08 07:30N 41°15' W 072°34'0 0.2
2017-Nov-08 07:00N 41°15' W 072°34'0 0.3
2017-Nov-08 06:31N 41°15' W 072°34'0 0.8
2017-Nov-08 06:01N 41°15' W 072°35'0 0.3
2017-Nov-08 05:30N 41°15' W 072°34'0 0.1
2017-Nov-08 05:01N 41°15' W 072°34'0 0.6
2017-Nov-08 04:30N 41°15' W 072°35'0 0.1
2017-Nov-08 04:00N 41°15' W 072°35'0 0.3
2017-Nov-08 03:31N 41°15' W 072°35'0 0.3
2017-Nov-08 03:00N 41°15' W 072°35'0 0.4
2017-Nov-08 02:29N 41°15' W 072°35'0 0.5
2017-Nov-08 01:59N 41°15' W 072°34'0 0.3
2017-Nov-08 01:30N 41°15' W 072°34'0 0.9
2017-Nov-08 01:01N 41°15' W 072°35'  
Track history (hours):
 
Tides and Currents Weather Stations Pressure Air Temp Water Temp Dewpoint Dewpoint Depression Visibility Wind Speed Wind Dir Waves Ship Positions

Kendall J. Hebert

Owner: Gulf Coast Tugs, Inc., Larose, LA. More information available from US FCC via Universal Licensing System and Coast Guard Vessel Documentation Center.

Last reported at 2017-Nov-18 00:18 UTC. Time now 2017-Nov-19 12:18 UTC.
Position N 41°14' W 072°40'.

Length 24 m.

Type: Tug. MMSI: 367567990.

Date/timePositionNaut miles runAvg speedWind from/ knotsBaromVisibWave heightAir tempDewpointWater temp
2017-Nov-18 00:18N 41°14' W 072°40'3 7.3
2017-Nov-17 23:55N 41°15' W 072°36'2 4.2
2017-Nov-17 23:29N 41°16' W 072°34'0 0.0
2017-Nov-17 23:00N 41°16' W 072°34'0 0.0
2017-Nov-17 22:30N 41°16' W 072°34'0 0.0
2017-Nov-17 22:00N 41°16' W 072°34'0 0.0
2017-Nov-17 21:30N 41°16' W 072°34'0 0.0
2017-Nov-17 21:00N 41°16' W 072°34'0 0.0
2017-Nov-17 20:29N 41°16' W 072°34'0 0.0
2017-Nov-17 20:00N 41°16' W 072°34'0 0.0
2017-Nov-17 19:31N 41°16' W 072°34'0 0.3
2017-Nov-17 19:00N 41°16' W 072°34'1 1.0
2017-Nov-17 18:31N 41°15' W 072°34'6 0.3
2017-Nov-16 23:30N 41°13' W 072°42'3 6.1
2017-Nov-16 23:00N 41°14' W 072°38'3 6.0
2017-Nov-16 22:30N 41°15' W 072°34'1 1.0
2017-Nov-16 22:00N 41°16' W 072°34'0 0.0
2017-Nov-16 21:29N 41°16' W 072°34'0 0.0
2017-Nov-16 21:00N 41°16' W 072°34'0 0.0
2017-Nov-16 20:30N 41°16' W 072°34'0 0.0
2017-Nov-16 20:00N 41°16' W 072°34'0 0.0
2017-Nov-16 19:30N 41°16' W 072°34'0 0.0
2017-Nov-16 19:00N 41°16' W 072°34'0 0.0
2017-Nov-16 18:30N 41°16' W 072°34'0 0.0
2017-Nov-16 18:00N 41°16' W 072°34'0 0.0
2017-Nov-16 17:30N 41°16' W 072°34'0 0.2
2017-Nov-16 17:00N 41°16' W 072°34'0 0.4
2017-Nov-16 16:30N 41°15' W 072°34'5 0.3
2017-Nov-15 21:16N 41°14' W 072°40'2 7.6
2017-Nov-15 21:00N 41°14' W 072°38'3 6.4
2017-Nov-15 20:30N 41°16' W 072°34'0 0.0
2017-Nov-15 20:00N 41°16' W 072°34'0 0.0
2017-Nov-15 19:30N 41°16' W 072°34'0 0.1
2017-Nov-15 19:00N 41°16' W 072°34'0 0.1
2017-Nov-15 18:30N 41°16' W 072°34'0 0.0
2017-Nov-15 18:00N 41°16' W 072°34'0 0.0
2017-Nov-15 17:30N 41°16' W 072°34'0 0.0
2017-Nov-15 17:00N 41°16' W 072°34'0 0.0
2017-Nov-15 16:30N 41°16' W 072°34'0 0.0
2017-Nov-15 16:00N 41°16' W 072°34'0 0.0
2017-Nov-15 15:30N 41°16' W 072°34'0 0.0
2017-Nov-15 15:00N 41°16' W 072°34'1 1.5
2017-Nov-15 14:30N 41°15' W 072°33'0 0.1
2017-Nov-15 14:00N 41°15' W 072°34'5 0.2
2017-Nov-14 16:50N 41°14' W 072°40'2 6.2
2017-Nov-14 16:30N 41°15' W 072°37'3 5.4
2017-Nov-14 16:00N 41°16' W 072°34'0 0.1
2017-Nov-14 15:30N 41°16' W 072°34'0 0.0
2017-Nov-14 15:00N 41°16' W 072°34'0 0.0
2017-Nov-14 14:30N 41°16' W 072°34'0 0.1
2017-Nov-14 14:00N 41°16' W 072°34'0 0.0
2017-Nov-14 13:29N 41°16' W 072°34'0 0.0
2017-Nov-14 13:00N 41°16' W 072°34'0 0.0
2017-Nov-14 12:30N 41°16' W 072°34'0 0.0
2017-Nov-14 12:00N 41°16' W 072°34'0 0.1
2017-Nov-14 11:30N 41°16' W 072°34'1 1.4
2017-Nov-14 11:00N 41°15' W 072°35'1 2.1
2017-Nov-14 10:30N 41°15' W 072°36'0 0.7
2017-Nov-14 09:58N 41°15' W 072°36'0 0.4
2017-Nov-14 09:30N 41°15' W 072°37'0 1.0
2017-Nov-14 09:00N 41°14' W 072°37'0 0.8
2017-Nov-14 08:30N 41°14' W 072°37'1 1.1
2017-Nov-14 08:00N 41°15' W 072°36'0 0.9
2017-Nov-14 07:30N 41°15' W 072°35'0 0.7
2017-Nov-14 07:00N 41°15' W 072°35'0 0.7
2017-Nov-14 06:30N 41°15' W 072°35'0 0.5
2017-Nov-14 06:00N 41°15' W 072°34'1 1.1
2017-Nov-14 05:30N 41°15' W 072°35'1 2.6
2017-Nov-14 05:00N 41°14' W 072°36'2 3.4
2017-Nov-14 04:26N 41°14' W 072°38'2 0.1
2017-Nov-12 21:42N 41°14' W 072°41'3 8.0
2017-Nov-12 21:22N 41°14' W 072°37'3 7.3
2017-Nov-12 21:00N 41°16' W 072°34'0 0.3
2017-Nov-12 20:30N 41°16' W 072°34'0 0.0
2017-Nov-12 20:01N 41°16' W 072°34'0 0.0
2017-Nov-12 19:30N 41°16' W 072°34'0 0.0
2017-Nov-12 19:00N 41°16' W 072°34'0 0.0
2017-Nov-12 18:30N 41°16' W 072°34'0 0.0
2017-Nov-12 18:00N 41°16' W 072°34'0 0.0
2017-Nov-12 17:30N 41°16' W 072°34'0 0.0
2017-Nov-12 17:00N 41°16' W 072°34'0 0.0
2017-Nov-12 16:30N 41°16' W 072°34'0 0.0
2017-Nov-12 16:00N 41°16' W 072°34'0 0.1
2017-Nov-12 15:29N 41°16' W 072°34'5 0.2
2017-Nov-11 17:45N 41°14' W 072°40'2 7.4
2017-Nov-11 17:29N 41°14' W 072°38'3 6.0
2017-Nov-11 17:00N 41°16' W 072°34'0 0.2
2017-Nov-11 16:30N 41°16' W 072°34'0 0.0
2017-Nov-11 16:00N 41°16' W 072°34'0 0.0
2017-Nov-11 15:30N 41°16' W 072°34'0 0.0
2017-Nov-11 15:00N 41°16' W 072°34'0 0.0
2017-Nov-11 14:29N 41°16' W 072°34'0 0.0
2017-Nov-11 14:00N 41°16' W 072°34'0 0.0
2017-Nov-11 13:30N 41°16' W 072°34'0 0.0
2017-Nov-11 13:00N 41°16' W 072°34'0 0.0
2017-Nov-11 12:30N 41°16' W 072°34'0 0.0
2017-Nov-11 11:57N 41°16' W 072°34'0 0.0
2017-Nov-11 11:30N 41°16' W 072°34'0 0.0
2017-Nov-11 10:18N 41°16' W 072°34'0 0.0
2017-Nov-11 09:59N 41°16' W 072°34'0 0.0
2017-Nov-11 09:30N 41°16' W 072°34'0 0.0
2017-Nov-11 09:00N 41°16' W 072°34'0 0.0
2017-Nov-11 08:30N 41°16' W 072°34'0 0.0
2017-Nov-11 08:00N 41°16' W 072°34'0 0.0
2017-Nov-11 07:30N 41°16' W 072°34'0 0.0
2017-Nov-11 07:00N 41°16' W 072°34'0 0.0
2017-Nov-11 06:30N 41°16' W 072°34'0 0.2
2017-Nov-11 06:00N 41°16' W 072°34'0 0.9
2017-Nov-11 05:30N 41°15' W 072°34'1 1.7
2017-Nov-11 05:00N 41°14' W 072°35'1 1.5
2017-Nov-11 04:20N 41°15' W 072°36'1 2.3
2017-Nov-11 04:00N 41°14' W 072°36'2 3.2
2017-Nov-11 03:27N 41°13' W 072°34'1 2.0
2017-Nov-11 03:00N 41°13' W 072°33'2 3.9
2017-Nov-11 02:30N 41°15' W 072°34'1 1.7
2017-Nov-11 02:01N 41°14' W 072°35'1 1.7
2017-Nov-11 01:31N 41°14' W 072°36'1 2.4
2017-Nov-11 01:00N 41°15' W 072°35'1 2.5
2017-Nov-11 00:30N 41°14' W 072°34'1 2.8
2017-Nov-11 00:00N 41°15' W 072°35'1 2.0
2017-Nov-10 23:30N 41°15' W 072°36'1 2.5
2017-Nov-10 23:00N 41°14' W 072°34'1 2.1
2017-Nov-10 22:30N 41°14' W 072°33'6 1.1
2017-Nov-10 17:28N 41°14' W 072°41'2 4.1
2017-Nov-10 17:01N 41°14' W 072°38'2 3.6
2017-Nov-10 16:31N 41°15' W 072°36'2 3.2
2017-Nov-10 16:00N 41°15' W 072°34'1 1.9
2017-Nov-10 15:30N 41°15' W 072°35'2 3.9
2017-Nov-10 15:00N 41°14' W 072°37'1 1.2
2017-Nov-10 14:29N 41°14' W 072°38'1 2.8
2017-Nov-10 14:00N 41°15' W 072°36'1 2.7
2017-Nov-10 13:30N 41°15' W 072°34'2 3.6
2017-Nov-10 13:00N 41°14' W 072°36'2 4.1
2017-Nov-10 12:30N 41°14' W 072°39'1 2.4
2017-Nov-10 12:01N 41°14' W 072°38'1 2.4
2017-Nov-10 11:31N 41°15' W 072°36'1 2.1
2017-Nov-10 11:00N 41°15' W 072°35'3 4.6
2017-Nov-10 10:24N 41°14' W 072°38'1 3.2
2017-Nov-10 10:00N 41°14' W 072°40'1 3.0
2017-Nov-10 09:30N 41°14' W 072°38'1 3.0
2017-Nov-10 09:00N 41°15' W 072°36'1 2.9
2017-Nov-10 08:31N 41°15' W 072°34'1 1.2
2017-Nov-10 08:00N 41°16' W 072°34'0 0.0
2017-Nov-10 07:31N 41°16' W 072°34'0 0.0
2017-Nov-10 07:00N 41°16' W 072°34'0 0.0
2017-Nov-10 06:31N 41°16' W 072°34'0 0.0
2017-Nov-10 06:00N 41°16' W 072°34'0 0.0
2017-Nov-10 05:30N 41°16' W 072°34'0 0.0
2017-Nov-10 05:01N 41°16' W 072°34'0 0.0
2017-Nov-10 04:30N 41°16' W 072°34'0 0.0
2017-Nov-10 04:01N 41°16' W 072°34'0 0.0
2017-Nov-10 03:30N 41°16' W 072°34'0 0.0
2017-Nov-10 03:01N 41°16' W 072°34'0 0.0
2017-Nov-10 02:30N 41°16' W 072°34'0 0.0
2017-Nov-10 02:01N 41°16' W 072°34'0 0.0
2017-Nov-10 01:31N 41°16' W 072°34'0 0.0
2017-Nov-10 01:00N 41°16' W 072°34'0 0.0
2017-Nov-10 00:31N 41°16' W 072°34'0 0.0
2017-Nov-10 00:01N 41°16' W 072°34'0 0.0
2017-Nov-09 23:30N 41°16' W 072°34'0 0.0
2017-Nov-09 23:01N 41°16' W 072°34'0 0.3
2017-Nov-09 22:28N 41°16' W 072°34'0 0.4
2017-Nov-09 22:01N 41°15' W 072°34'0 0.8
2017-Nov-09 21:31N 41°15' W 072°34'0 0.9
2017-Nov-09 21:00N 41°15' W 072°34'0 0.3
2017-Nov-09 20:30N 41°15' W 072°35'0 0.1
2017-Nov-09 20:01N 41°15' W 072°35'0 0.2
2017-Nov-09 19:31N 41°15' W 072°35'0 0.3
2017-Nov-09 19:01N 41°15' W 072°35'0 0.6
2017-Nov-09 18:30N 41°15' W 072°35'0 0.2
2017-Nov-09 18:01N 41°15' W 072°35'0 0.0
2017-Nov-09 17:31N 41°15' W 072°35'1 1.5
2017-Nov-09 17:01N 41°15' W 072°36'1 2.0
2017-Nov-09 16:31N 41°15' W 072°37'1 0.1
2017-Nov-08 22:46N 41°14' W 072°39'1 5.2
2017-Nov-08 22:31N 41°15' W 072°37'3 5.0
2017-Nov-08 22:01N 41°16' W 072°34'0 0.3
2017-Nov-08 21:31N 41°16' W 072°34'0 0.0
2017-Nov-08 20:46N 41°16' W 072°34'0 0.0
2017-Nov-08 20:31N 41°16' W 072°34'0 0.0
2017-Nov-08 20:00N 41°16' W 072°34'0 0.0
2017-Nov-08 19:30N 41°16' W 072°34'0 0.0
2017-Nov-08 19:00N 41°16' W 072°34'0 0.0
2017-Nov-08 18:29N 41°16' W 072°34'0 0.0
2017-Nov-08 18:00N 41°16' W 072°34'0 0.0
2017-Nov-08 17:30N 41°16' W 072°34'0 0.0
2017-Nov-08 17:00N 41°16' W 072°34'0 0.0
2017-Nov-08 16:30N 41°16' W 072°34'0 0.0
2017-Nov-08 16:01N 41°16' W 072°34'0 0.0
2017-Nov-08 15:30N 41°16' W 072°34'0 0.0
2017-Nov-08 15:00N 41°16' W 072°34'0 0.0
2017-Nov-08 14:30N 41°16' W 072°34'0 0.0
2017-Nov-08 14:01N 41°16' W 072°34'0 0.0
2017-Nov-08 13:31N 41°16' W 072°34'0 0.0
2017-Nov-08 13:00N 41°16' W 072°34'0 0.0
2017-Nov-08 12:31N 41°16' W 072°34'0 0.9
2017-Nov-08 12:01N 41°15' W 072°34'0 0.7
2017-Nov-08 11:31N 41°15' W 072°34'0 0.8
2017-Nov-08 11:00N 41°15' W 072°35'0 0.2
2017-Nov-08 10:31N 41°15' W 072°35'1 1.4
2017-Nov-08 10:01N 41°15' W 072°34'0 1.0
2017-Nov-08 09:31N 41°14' W 072°34'1 1.5
2017-Nov-08 09:01N 41°15' W 072°34'0 0.3
2017-Nov-08 08:30N 41°15' W 072°34'0 0.5
2017-Nov-08 08:00N 41°15' W 072°34'0 0.2
2017-Nov-08 07:30N 41°15' W 072°34'0 0.2
2017-Nov-08 07:00N 41°15' W 072°34'0 0.3
2017-Nov-08 06:31N 41°15' W 072°34'0 0.8
2017-Nov-08 06:01N 41°15' W 072°35'0 0.3
2017-Nov-08 05:30N 41°15' W 072°34'0 0.1
2017-Nov-08 05:01N 41°15' W 072°34'0 0.6
2017-Nov-08 04:30N 41°15' W 072°35'0 0.1
2017-Nov-08 04:00N 41°15' W 072°35'0 0.3
2017-Nov-08 03:31N 41°15' W 072°35'0 0.3
2017-Nov-08 03:00N 41°15' W 072°35'0 0.4
2017-Nov-08 02:29N 41°15' W 072°35'0 0.5
2017-Nov-08 01:59N 41°15' W 072°34'0 0.3
2017-Nov-08 01:30N 41°15' W 072°34'0 0.9
2017-Nov-08 01:01N 41°15' W 072°35'  

Dump ship's entire track history